createdAt,value
2023-04-21T00:01:17.713Z,7.70
2023-04-21T00:03:44.547Z,7.97
2023-04-21T00:06:11.339Z,7.90
2023-04-21T00:08:40.747Z,7.30
2023-04-21T00:11:08.140Z,7.33
2023-04-21T00:13:38.866Z,7.67
2023-04-21T00:16:05.814Z,7.13
2023-04-21T00:18:32.460Z,8.27
2023-04-21T00:20:58.911Z,7.83
2023-04-21T00:23:25.465Z,8.43
2023-04-21T00:25:52.366Z,8.00
2023-04-21T00:28:19.098Z,7.60
2023-04-21T00:30:45.553Z,7.20
2023-04-21T00:33:12.048Z,7.53
2023-04-21T00:35:38.545Z,7.40
2023-04-21T00:38:05.143Z,7.30
2023-04-21T00:40:31.630Z,7.50
2023-04-21T00:42:58.421Z,7.30
2023-04-21T00:45:25.277Z,7.30
2023-04-21T00:47:52.453Z,7.67
2023-04-21T00:50:19.043Z,7.70
2023-04-21T00:52:47.072Z,7.20
2023-04-21T00:55:14.358Z,6.80
2023-04-21T00:57:41.104Z,7.87
2023-04-21T01:00:08.973Z,7.57
2023-04-21T01:02:37.679Z,7.50
2023-04-21T01:05:08.926Z,7.07
2023-04-21T01:07:36.289Z,7.80
2023-04-21T01:10:03.728Z,7.33
2023-04-21T01:12:30.228Z,8.17
2023-04-21T01:14:57.097Z,7.70
2023-04-21T01:17:23.665Z,7.53
2023-04-21T01:19:50.992Z,7.00
2023-04-21T01:22:18.142Z,7.57
2023-04-21T01:24:47.177Z,7.47
2023-04-21T01:27:19.187Z,7.17
2023-04-21T01:29:47.562Z,7.00
2023-04-21T01:32:17.269Z,6.63
2023-04-21T01:34:44.120Z,7.30
2023-04-21T01:37:16.045Z,6.80
2023-04-21T01:39:47.671Z,6.27
2023-04-21T01:42:14.676Z,6.97
2023-04-21T01:44:41.166Z,6.80
2023-04-21T01:47:08.840Z,6.60
2023-04-21T01:49:35.511Z,6.43
2023-04-21T01:52:02.052Z,6.27
2023-04-21T01:54:28.531Z,7.00
2023-04-21T01:56:55.134Z,6.40
2023-04-21T01:59:22.199Z,7.17
2023-04-21T02:01:48.711Z,6.67
2023-04-21T02:04:15.496Z,6.80
2023-04-21T02:06:42.169Z,6.53
2023-04-21T02:09:08.734Z,6.90
2023-04-21T02:11:35.224Z,6.70
2023-04-21T02:14:01.676Z,6.90
2023-04-21T02:16:28.449Z,6.23
2023-04-21T02:18:57.135Z,7.17
2023-04-21T02:21:24.664Z,7.03
2023-04-21T02:23:52.094Z,6.30
2023-04-21T02:26:18.993Z,6.77
2023-04-21T02:28:45.740Z,6.30
2023-04-21T02:31:12.441Z,6.33
2023-04-21T02:33:38.971Z,6.73
2023-04-21T02:36:05.864Z,6.83
2023-04-21T02:38:32.406Z,6.67
2023-04-21T02:40:58.886Z,7.00
2023-04-21T02:43:25.573Z,6.47
2023-04-21T02:45:52.062Z,5.93
2023-04-21T02:48:23.055Z,6.03
2023-04-21T02:50:50.689Z,6.63
2023-04-21T02:53:17.298Z,6.80
2023-04-21T02:55:44.044Z,7.20
2023-04-21T02:58:11.393Z,6.70
2023-04-21T03:00:37.977Z,6.23
2023-04-21T03:03:04.695Z,6.30
2023-04-21T03:05:31.250Z,7.03
2023-04-21T03:07:57.746Z,6.57
2023-04-21T03:10:24.273Z,6.83
2023-04-21T03:12:50.774Z,6.70
2023-04-21T03:15:19.515Z,6.50
2023-04-21T03:17:46.370Z,7.00
2023-04-21T03:20:13.006Z,6.00
2023-04-21T03:22:39.595Z,6.37
2023-04-21T03:25:07.472Z,6.10
2023-04-21T03:27:34.751Z,6.27
2023-04-21T03:30:01.426Z,6.70
2023-04-21T03:32:28.111Z,5.97
2023-04-21T03:34:54.799Z,5.60
2023-04-21T03:37:21.468Z,6.73
2023-04-21T03:39:48.509Z,6.07
2023-04-21T03:42:15.250Z,6.70
2023-04-21T03:44:42.078Z,6.83
2023-04-21T03:47:08.796Z,6.00
2023-04-21T03:49:35.508Z,6.13
2023-04-21T03:52:02.463Z,6.00
2023-04-21T03:54:29.161Z,5.67
2023-04-21T03:56:55.906Z,5.93
2023-04-21T03:59:22.478Z,5.97
2023-04-21T04:01:49.069Z,5.63
2023-04-21T04:04:15.988Z,5.70
2023-04-21T04:06:42.927Z,5.60
2023-04-21T04:09:10.563Z,6.13
2023-04-21T04:11:37.048Z,5.23
2023-04-21T04:14:03.756Z,5.87
2023-04-21T04:16:30.958Z,5.47
2023-04-21T04:18:57.660Z,5.23
2023-04-21T04:21:24.209Z,5.57
2023-04-21T04:23:54.121Z,4.80
2023-04-21T04:26:24.553Z,5.40
2023-04-21T04:28:52.396Z,5.40
2023-04-21T04:31:19.556Z,4.67
2023-04-21T04:33:46.339Z,5.30
2023-04-21T04:36:13.060Z,5.10
2023-04-21T04:38:40.425Z,4.70
2023-04-21T04:41:09.031Z,4.40
2023-04-21T04:43:36.949Z,4.90
2023-04-21T04:46:03.749Z,5.17
2023-04-21T04:48:30.374Z,4.87
2023-04-21T04:50:57.065Z,5.00
2023-04-21T04:53:23.597Z,5.27
2023-04-21T04:55:50.293Z,5.23
2023-04-21T04:58:16.866Z,4.80
2023-04-21T05:00:43.391Z,5.00
2023-04-21T05:03:10.469Z,5.23
2023-04-21T05:05:37.196Z,5.30
2023-04-21T05:08:03.807Z,4.93
2023-04-21T05:10:30.294Z,4.87
2023-04-21T05:12:56.864Z,5.40
2023-04-21T05:15:23.488Z,5.07
2023-04-21T05:17:50.129Z,5.20
2023-04-21T05:20:16.699Z,4.77
2023-04-21T05:22:43.218Z,4.93
2023-04-21T05:25:14.892Z,4.40
2023-04-21T05:27:45.827Z,4.57
2023-04-21T05:30:12.330Z,5.07
2023-04-21T05:32:39.042Z,5.10
2023-04-21T05:35:06.284Z,4.80
2023-04-21T05:37:32.761Z,4.77
2023-04-21T05:39:59.227Z,5.30
2023-04-21T05:42:25.728Z,4.87
2023-04-21T05:44:55.023Z,4.97
2023-04-21T05:47:21.585Z,4.80
2023-04-21T05:49:52.650Z,5.07
2023-04-21T05:52:20.745Z,4.80
2023-04-21T05:54:47.357Z,4.50
2023-04-21T05:57:14.018Z,4.73
2023-04-21T05:59:40.510Z,4.70
2023-04-21T06:02:07.715Z,4.90
2023-04-21T06:04:34.487Z,4.33
2023-04-21T06:07:13.593Z,4.83
2023-04-21T06:09:41.159Z,4.50
2023-04-21T06:12:07.718Z,5.00
2023-04-21T06:14:34.183Z,4.27
2023-04-21T06:17:00.826Z,4.60
2023-04-21T06:19:27.311Z,4.40
2023-04-21T06:21:53.780Z,4.50
2023-04-21T06:24:25.205Z,4.07
2023-04-21T06:26:53.090Z,4.30
2023-04-21T06:29:20.821Z,4.30
2023-04-21T06:31:47.621Z,4.30
2023-04-21T06:34:14.408Z,4.33
2023-04-21T06:36:40.954Z,4.27
2023-04-21T06:39:07.507Z,3.73
2023-04-21T06:41:34.194Z,4.50
2023-04-21T06:44:00.857Z,4.57
2023-04-21T06:46:27.564Z,3.53
2023-04-21T06:48:54.122Z,3.80
2023-04-21T06:51:20.737Z,3.83
2023-04-21T06:53:47.202Z,4.43
2023-04-21T06:56:13.768Z,4.73
2023-04-21T06:58:40.415Z,3.80
2023-04-21T07:01:07.092Z,4.17
2023-04-21T07:03:33.685Z,4.20
2023-04-21T07:06:00.584Z,3.80
2023-04-21T07:08:27.252Z,4.17
2023-04-21T07:10:54.138Z,3.90
2023-04-21T07:13:20.768Z,4.37
2023-04-21T07:15:47.328Z,3.93
2023-04-21T07:18:13.909Z,3.77
2023-04-21T07:20:40.823Z,4.30
2023-04-21T07:23:07.347Z,4.00
2023-04-21T07:25:33.934Z,3.70
2023-04-21T07:28:00.641Z,3.70
2023-04-21T07:30:27.169Z,4.13
2023-04-21T07:32:53.738Z,3.80
2023-04-21T07:35:20.491Z,3.60
2023-04-21T07:37:47.155Z,3.70
2023-04-21T07:40:14.679Z,3.37
2023-04-21T07:42:41.260Z,3.60
2023-04-21T07:45:08.427Z,3.53
2023-04-21T07:47:35.411Z,3.80
2023-04-21T07:50:02.112Z,3.75
2023-04-21T07:52:28.827Z,3.23
2023-04-21T07:54:55.550Z,3.27
2023-04-21T07:57:23.017Z,3.83
2023-04-21T07:59:49.632Z,3.50
2023-04-21T08:02:16.598Z,3.40
2023-04-21T08:04:43.645Z,3.60
2023-04-21T08:07:16.011Z,3.60
2023-04-21T08:09:42.730Z,3.43
2023-04-21T08:12:10.423Z,3.93
2023-04-21T08:14:37.115Z,3.23
2023-04-21T08:17:03.722Z,3.23
2023-04-21T08:19:30.352Z,3.20
2023-04-21T08:21:57.826Z,3.00
2023-04-21T08:24:26.002Z,2.70
2023-04-21T08:26:55.268Z,2.97
2023-04-21T08:29:22.027Z,2.77
2023-04-21T08:31:48.948Z,3.07
2023-04-21T08:34:15.793Z,2.93
2023-04-21T08:36:43.004Z,3.10
2023-04-21T08:39:10.847Z,3.17
2023-04-21T08:41:40.167Z,2.70
2023-04-21T08:44:07.349Z,2.50
2023-04-21T08:46:34.178Z,2.50
2023-04-21T08:49:03.979Z,2.63
2023-04-21T08:51:31.377Z,3.10
2023-04-21T08:53:58.736Z,2.50
2023-04-21T08:56:26.744Z,2.70
2023-04-21T08:58:54.187Z,2.90
2023-04-21T09:01:21.089Z,2.80
2023-04-21T09:03:47.886Z,2.47
2023-04-21T09:06:14.698Z,2.37
2023-04-21T09:08:53.494Z,2.60
2023-04-21T09:11:20.169Z,2.20
2023-04-21T09:13:46.784Z,2.30
2023-04-21T09:16:23.736Z,2.50
2023-04-21T09:18:51.719Z,2.67
2023-04-21T09:21:19.783Z,2.53
2023-04-21T09:23:51.577Z,2.70
2023-04-21T09:26:21.291Z,2.50
2023-04-21T09:28:49.099Z,2.60
2023-04-21T09:31:20.922Z,2.70
2023-04-21T09:33:57.220Z,2.50
2023-04-21T09:36:27.892Z,2.30
2023-04-21T09:39:05.588Z,2.67
2023-04-21T09:41:41.358Z,2.73
2023-04-21T09:44:07.929Z,2.30
2023-04-21T09:46:36.519Z,2.50
2023-04-21T09:49:03.808Z,2.63
2023-04-21T09:54:22.121Z,2.63
2023-04-21T09:56:57.751Z,2.40
2023-04-21T09:59:30.372Z,2.10
2023-04-21T10:01:58.248Z,2.40
2023-04-21T10:04:26.289Z,2.53
2023-04-21T10:06:53.502Z,2.60
2023-04-21T10:09:23.171Z,2.43
2023-04-21T10:11:49.868Z,2.30
2023-04-21T10:14:16.485Z,2.87
2023-04-21T10:16:43.215Z,2.30
2023-04-21T10:19:27.072Z,2.43
2023-04-21T10:22:00.130Z,1.90
2023-04-21T10:24:30.610Z,2.20
2023-04-21T10:27:01.671Z,2.50
2023-04-21T10:29:40.205Z,2.50
2023-04-21T10:32:11.872Z,2.30
2023-04-21T10:34:38.982Z,2.30
2023-04-21T10:37:05.505Z,2.00
2023-04-21T10:39:37.232Z,2.20
2023-04-21T10:42:13.185Z,2.37
2023-04-21T10:44:51.108Z,2.27
2023-04-21T10:47:37.549Z,2.47
2023-04-21T10:50:14.369Z,2.37
2023-04-21T10:52:44.717Z,1.90
2023-04-21T10:55:12.941Z,2.13
2023-04-21T10:57:42.673Z,2.40
2023-04-21T11:00:15.628Z,2.40
2023-04-21T11:02:44.659Z,2.30
2023-04-21T11:05:12.182Z,2.40
2023-04-21T11:07:38.895Z,2.70
2023-04-21T11:10:10.516Z,1.90
2023-04-21T11:12:38.749Z,2.20
2023-04-21T11:15:12.026Z,2.30
2023-04-21T11:17:39.933Z,2.87
2023-04-21T11:20:07.509Z,2.20
2023-04-21T11:22:34.288Z,2.57
2023-04-21T11:25:01.078Z,2.20
2023-04-21T11:30:22.715Z,2.17
2023-04-21T11:33:05.739Z,2.20
2023-04-21T11:35:39.967Z,2.53
2023-04-21T11:38:21.188Z,2.43
2023-04-21T11:40:58.258Z,2.13
2023-04-21T11:43:35.004Z,2.63
2023-04-21T11:46:34.921Z,2.47
2023-04-21T11:49:16.796Z,2.33
2023-04-21T11:51:55.441Z,2.33
2023-04-21T11:54:24.407Z,2.17
2023-04-21T11:56:52.249Z,2.20
2023-04-21T11:59:26.761Z,2.00
2023-04-21T12:01:54.518Z,2.00
2023-04-21T12:04:25.517Z,2.10
2023-04-21T12:07:02.965Z,2.47
2023-04-21T12:09:30.210Z,2.35
2023-04-21T12:11:57.870Z,2.50
2023-04-21T12:14:27.389Z,2.20
2023-04-21T12:16:57.391Z,2.20
2023-04-21T12:19:41.609Z,2.17
2023-04-21T12:22:11.179Z,2.17
2023-04-21T12:24:38.581Z,1.90
2023-04-21T12:27:06.401Z,2.53
2023-04-21T12:29:35.872Z,2.00
2023-04-21T12:32:02.873Z,1.90
2023-04-21T12:34:29.895Z,2.10
2023-04-21T12:36:56.597Z,2.00
2023-04-21T12:39:23.291Z,2.37
2023-04-21T12:41:49.929Z,2.60
2023-04-21T12:44:16.825Z,2.20
2023-04-21T12:46:43.608Z,2.03
2023-04-21T12:49:12.155Z,2.17
2023-04-21T12:51:38.868Z,2.10
2023-04-21T12:54:06.255Z,2.07
2023-04-21T12:56:33.207Z,2.20
2023-04-21T12:58:59.744Z,2.13
2023-04-21T13:01:26.649Z,2.20
2023-04-21T13:03:53.684Z,1.80
2023-04-21T13:06:20.476Z,1.93
2023-04-21T13:08:46.990Z,2.27
2023-04-21T13:11:14.150Z,2.00
2023-04-21T13:13:40.751Z,2.00
2023-04-21T13:16:07.331Z,2.07
2023-04-21T13:18:37.860Z,1.90
2023-04-21T13:21:04.750Z,2.28
2023-04-21T13:23:31.503Z,2.37
2023-04-21T13:25:58.656Z,1.92
2023-04-21T13:28:26.552Z,2.10
2023-04-21T13:30:53.584Z,2.40
2023-04-21T13:33:21.323Z,2.10
2023-04-21T13:35:47.883Z,2.13
2023-04-21T13:38:14.552Z,2.10
2023-04-21T13:40:41.306Z,2.10
2023-04-21T13:43:08.761Z,2.17
2023-04-21T13:45:35.579Z,2.07
2023-04-21T13:48:02.233Z,2.53
2023-04-21T13:50:28.814Z,1.93
2023-04-21T13:52:55.529Z,2.40
2023-04-21T13:55:22.143Z,3.00
2023-04-21T13:57:48.611Z,2.43
2023-04-21T14:00:15.915Z,2.70
2023-04-21T14:02:42.806Z,2.40
2023-04-21T14:05:10.901Z,2.40
2023-04-21T14:07:37.913Z,2.33
2023-04-21T14:10:04.683Z,2.00
2023-04-21T14:12:31.344Z,2.27
2023-04-21T14:14:57.877Z,2.00
2023-04-21T14:17:24.662Z,2.13
2023-04-21T14:19:52.591Z,2.40
2023-04-21T14:22:21.202Z,2.27
2023-04-21T14:24:47.868Z,2.20
2023-04-21T14:27:14.511Z,2.03
2023-04-21T14:29:41.269Z,2.20
2023-04-21T14:32:08.319Z,2.40
2023-04-21T14:34:34.930Z,2.43
2023-04-21T14:37:01.561Z,2.30
2023-04-21T14:39:28.325Z,2.40
2023-04-21T14:41:55.156Z,2.30
2023-04-21T14:44:21.883Z,2.60
2023-04-21T14:46:57.394Z,2.20
2023-04-21T14:49:28.112Z,2.17
2023-04-21T14:51:54.713Z,2.30
2023-04-21T14:54:21.403Z,2.37
2023-04-21T14:56:48.401Z,2.30
2023-04-21T14:59:15.147Z,1.90
2023-04-21T15:01:41.887Z,2.30
2023-04-21T15:04:08.647Z,2.43
2023-04-21T15:06:35.889Z,2.60
2023-04-21T15:09:06.876Z,2.73
2023-04-21T15:11:36.658Z,2.93
2023-04-21T15:14:03.458Z,2.20
2023-04-21T15:16:30.684Z,2.33
2023-04-21T15:18:57.405Z,2.53
2023-04-21T15:21:24.410Z,2.43
2023-04-21T15:23:51.165Z,2.13
2023-04-21T15:26:17.908Z,1.87
2023-04-21T15:28:44.527Z,2.57
2023-04-21T15:31:12.421Z,2.03
2023-04-21T15:33:39.127Z,2.03
2023-04-21T15:36:06.025Z,2.43
2023-04-21T15:38:32.675Z,2.40
2023-04-21T15:41:00.838Z,2.40
2023-04-21T15:43:28.259Z,2.27
2023-04-21T15:45:54.924Z,1.93
2023-04-21T15:48:22.244Z,2.20
2023-04-21T15:50:49.032Z,2.63
2023-04-21T15:53:17.265Z,2.43
2023-04-21T15:55:45.407Z,2.30
2023-04-21T15:58:13.575Z,2.53
2023-04-21T16:00:41.751Z,2.23
2023-04-21T16:03:10.020Z,2.17
2023-04-21T16:05:36.828Z,2.87
2023-04-21T16:08:03.505Z,2.33
2023-04-21T16:10:30.256Z,2.60
2023-04-21T16:12:56.825Z,2.37
2023-04-21T16:15:25.022Z,1.87
2023-04-21T16:17:52.820Z,2.70
2023-04-21T16:20:19.673Z,2.37
2023-04-21T16:22:46.311Z,2.57
2023-04-21T16:25:14.462Z,2.30
2023-04-21T16:27:41.208Z,2.00
2023-04-21T16:30:08.976Z,2.20
2023-04-21T16:32:36.342Z,2.70
2023-04-21T16:35:11.108Z,2.10
2023-04-21T16:37:40.643Z,2.37
2023-04-21T16:40:08.969Z,2.10
2023-04-21T16:42:36.240Z,2.57
2023-04-21T16:45:04.508Z,2.40
2023-04-21T16:47:34.172Z,2.27
2023-04-21T16:50:00.802Z,2.00
2023-04-21T16:52:27.570Z,2.03
2023-04-21T16:54:54.111Z,2.43
2023-04-21T16:57:20.852Z,1.90
2023-04-21T16:59:47.529Z,2.50
2023-04-21T17:02:14.314Z,1.83
2023-04-21T17:04:40.956Z,2.17
2023-04-21T17:07:07.673Z,2.63
2023-04-21T17:09:34.163Z,2.40
2023-04-21T17:12:01.267Z,2.70
2023-04-21T17:14:27.806Z,2.57
2023-04-21T17:16:55.236Z,2.50
2023-04-21T17:19:22.637Z,2.63
2023-04-21T17:21:49.614Z,2.37
2023-04-21T17:24:17.151Z,2.20
2023-04-21T17:26:43.932Z,2.37
2023-04-21T17:29:11.915Z,3.30
2023-04-21T17:31:38.479Z,3.20
2023-04-21T17:34:04.981Z,2.30
2023-04-21T17:36:31.730Z,2.60
2023-04-21T17:38:59.057Z,2.40
2023-04-21T17:41:26.634Z,2.57
2023-04-21T17:43:54.878Z,2.70
2023-04-21T17:46:24.728Z,2.57
2023-04-21T17:48:52.066Z,2.57
2023-04-21T17:51:19.601Z,2.10
2023-04-21T17:53:46.759Z,2.70
2023-04-21T17:56:14.432Z,4.30
2023-04-21T17:58:41.531Z,3.13
2023-04-21T18:01:08.445Z,2.87
2023-04-21T18:03:36.184Z,2.93
2023-04-21T18:06:03.042Z,2.50
2023-04-21T18:08:29.603Z,2.43
2023-04-21T18:10:56.142Z,3.43
2023-04-21T18:13:22.719Z,3.07
2023-04-21T18:15:49.429Z,2.90
2023-04-21T18:18:16.194Z,4.50
2023-04-21T18:20:42.975Z,4.70
2023-04-21T18:23:10.435Z,9.40
2023-04-21T18:25:42.432Z,6.20
2023-04-21T18:28:11.733Z,7.13
2023-04-21T18:30:41.252Z,6.37
2023-04-21T18:33:08.778Z,4.53
2023-04-21T18:35:35.843Z,3.67
2023-04-21T18:38:02.799Z,3.80
2023-04-21T18:40:29.547Z,3.47
2023-04-21T18:42:56.922Z,7.40
2023-04-21T18:45:23.577Z,4.27
2023-04-21T18:47:50.143Z,4.57
2023-04-21T18:50:16.779Z,4.20
2023-04-21T18:52:43.695Z,3.27
2023-04-21T18:55:11.365Z,3.47
2023-04-21T18:57:38.087Z,3.40
2023-04-21T19:00:05.327Z,4.13
2023-04-21T19:02:31.931Z,4.43
2023-04-21T19:04:58.738Z,4.47
2023-04-21T19:07:26.957Z,3.37
2023-04-21T19:09:53.934Z,3.63
2023-04-21T19:12:21.211Z,4.00
2023-04-21T19:14:48.129Z,4.57
2023-04-21T19:17:15.623Z,5.00
2023-04-21T19:19:42.350Z,4.30
2023-04-21T19:22:08.816Z,4.67
2023-04-21T19:24:35.879Z,4.97
2023-04-21T19:27:03.754Z,4.37
2023-04-21T19:29:31.275Z,5.03
2023-04-21T19:31:58.509Z,4.53
2023-04-21T19:34:25.504Z,4.90
2023-04-21T19:36:52.881Z,5.20
2023-04-21T19:39:19.516Z,5.17
2023-04-21T19:41:46.255Z,5.07
2023-04-21T19:44:13.018Z,4.83
2023-04-21T19:46:42.950Z,4.80
2023-04-21T19:49:13.031Z,5.27
2023-04-21T19:51:41.001Z,5.70
2023-04-21T19:54:12.002Z,5.40
2023-04-21T19:56:39.865Z,5.27
2023-04-21T19:59:06.501Z,5.57
2023-04-21T20:01:36.409Z,4.87
2023-04-21T20:04:03.752Z,5.30
2023-04-21T20:06:31.703Z,5.30
2023-04-21T20:08:58.224Z,6.10
2023-04-21T20:11:26.205Z,5.93
2023-04-21T20:13:54.980Z,5.57
2023-04-21T20:16:21.485Z,6.17
2023-04-21T20:18:48.953Z,6.40
2023-04-21T20:21:15.554Z,6.10
2023-04-21T20:23:42.067Z,6.13
2023-04-21T20:26:08.701Z,6.60
2023-04-21T20:28:35.420Z,6.53
2023-04-21T20:31:02.263Z,6.47
2023-04-21T20:33:29.012Z,6.70
2023-04-21T20:35:56.910Z,7.43
2023-04-21T20:38:26.540Z,7.03
2023-04-21T20:40:53.367Z,6.90
2023-04-21T20:43:20.305Z,7.40
2023-04-21T20:45:47.520Z,6.63
2023-04-21T20:48:14.139Z,7.63
2023-04-21T20:50:42.263Z,6.87
2023-04-21T20:53:10.237Z,7.03
2023-04-21T20:55:36.865Z,7.60
2023-04-21T20:58:06.464Z,8.20
2023-04-21T21:00:34.566Z,7.60
2023-04-21T21:03:01.833Z,7.17
2023-04-21T21:05:33.384Z,7.20
2023-04-21T21:08:00.005Z,6.53
2023-04-21T21:10:26.901Z,6.73
2023-04-21T21:12:53.587Z,7.10
2023-04-21T21:15:20.186Z,6.90
2023-04-21T21:17:46.865Z,6.17
2023-04-21T21:20:13.636Z,7.27
2023-04-21T21:22:40.126Z,6.70
2023-04-21T21:25:06.979Z,6.47
2023-04-21T21:27:33.520Z,6.57
2023-04-21T21:30:00.241Z,6.10
2023-04-21T21:32:26.975Z,7.17
2023-04-21T21:34:53.538Z,6.87
2023-04-21T21:37:20.155Z,7.07
2023-04-21T21:39:46.786Z,6.50
2023-04-21T21:42:13.285Z,7.03
2023-04-21T21:44:39.838Z,6.70
2023-04-21T21:47:06.362Z,6.80
2023-04-21T21:49:32.934Z,7.70
2023-04-21T21:51:59.556Z,7.07
2023-04-21T21:54:26.017Z,7.80
2023-04-21T21:56:52.509Z,7.20
2023-04-21T21:59:19.029Z,7.23
2023-04-21T22:01:45.810Z,7.60
2023-04-21T22:04:12.528Z,6.87
2023-04-21T22:06:39.217Z,7.57
2023-04-21T22:09:06.217Z,6.87
2023-04-21T22:11:32.782Z,7.43
2023-04-21T22:14:10.978Z,7.63
2023-04-21T22:16:45.781Z,8.20
2023-04-21T22:19:12.537Z,7.70
2023-04-21T22:21:39.057Z,7.60
2023-04-21T22:24:05.909Z,8.23
2023-04-21T22:26:32.475Z,7.80
2023-04-21T22:28:59.064Z,7.37
2023-04-21T22:31:25.915Z,8.13
2023-04-21T22:33:52.449Z,7.60
2023-04-21T22:36:18.891Z,7.97
2023-04-21T22:38:46.418Z,7.30
2023-04-21T22:41:13.771Z,7.40
2023-04-21T22:43:40.639Z,7.60
2023-04-21T22:46:07.547Z,7.27
2023-04-21T22:48:36.187Z,8.33
2023-04-21T22:51:03.448Z,7.77
2023-04-21T22:53:30.198Z,8.27
2023-04-21T22:55:56.789Z,8.33
2023-04-21T22:58:25.028Z,7.53
2023-04-21T23:00:52.004Z,7.93
2023-04-21T23:03:19.116Z,8.70
2023-04-21T23:05:45.711Z,9.00
2023-04-21T23:08:12.189Z,9.60
2023-04-21T23:10:38.716Z,9.17
2023-04-21T23:13:05.541Z,10.03
2023-04-21T23:15:32.216Z,9.57
2023-04-21T23:17:58.809Z,9.43
2023-04-21T23:20:25.633Z,9.50
2023-04-21T23:22:52.239Z,8.87
2023-04-21T23:25:18.753Z,9.10
2023-04-21T23:27:45.678Z,8.90
2023-04-21T23:30:12.763Z,9.20
2023-04-21T23:32:39.647Z,9.07
2023-04-21T23:35:06.618Z,8.40
2023-04-21T23:37:33.307Z,9.00
2023-04-21T23:39:59.873Z,7.90
2023-04-21T23:42:26.445Z,8.70
2023-04-21T23:44:52.995Z,7.90
2023-04-21T23:47:19.449Z,7.73
2023-04-21T23:49:45.926Z,8.03
2023-04-21T23:52:12.437Z,7.80
2023-04-21T23:54:38.903Z,8.07
2023-04-21T23:57:05.440Z,8.03
2023-04-21T23:59:31.895Z,7.83
